Time;durP1;ratioP1;P1;durP2;ratioP2;P2;SDS_P1;SDS_P2;PMS_P1;PMS_P2;Temp;Humidity;BMP_temperature;BMP_pressure;BME280_temperature;BME280_humidity;BME280_pressure;Samples;Min_cycle;Max_cycle;Signal;HPM_P1;HPM_P2
2024/04/04 00:01:10;;;;;;;3.75;1.10;;;14.20;62.00;15.60;100451.00;;;;5009612;28;20567;-78
2024/04/04 00:03:37;;;;;;;3.85;0.65;;;14.10;62.00;15.60;100446.00;;;;5009932;28;20197;-79
2024/04/04 00:06:05;;;;;;;4.65;1.13;;;14.10;62.00;15.50;100454.00;;;;5007079;28;20733;-79
2024/04/04 00:08:31;;;;;;;9.98;1.60;;;14.00;62.00;15.50;100452.00;;;;5008996;28;20287;-79
2024/04/04 00:11:09;;;;;;;3.28;0.85;;;14.00;62.10;15.40;100446.00;;;;5009543;28;20275;-76
2024/04/04 00:13:36;;;;;;;3.65;0.68;;;13.90;62.20;15.40;100439.00;;;;4990297;28;20657;-76
2024/04/04 00:16:03;;;;;;;2.50;1.02;;;13.90;62.20;15.40;100433.00;;;;5009435;28;20288;-77
2024/04/04 00:18:29;;;;;;;3.78;0.80;;;13.80;62.20;15.30;100435.00;;;;5010015;28;20217;-76
2024/04/04 00:20:58;;;;;;;3.92;0.93;;;13.80;62.30;15.30;100437.00;;;;5009001;28;20207;-79
2024/04/04 00:23:24;;;;;;;3.25;0.68;;;13.80;62.30;15.20;100430.00;;;;5009863;28;20201;-79
2024/04/04 00:25:51;;;;;;;2.80;0.82;;;13.70;62.40;15.20;100419.00;;;;5008160;28;20299;-79
2024/04/04 00:28:17;;;;;;;3.45;0.80;;;13.70;62.40;15.20;100419.00;;;;5010154;28;20222;-79
2024/04/04 00:30:44;;;;;;;3.65;0.98;;;13.70;62.50;15.20;100422.00;;;;5008802;28;20651;-79
2024/04/04 00:33:10;;;;;;;1.83;0.68;;;13.60;62.40;15.10;100409.00;;;;5066506;22;20187;-79
2024/04/04 00:35:37;;;;;;;2.90;0.60;;;13.60;62.50;15.10;100412.00;;;;5028983;28;20211;-79
2024/04/04 00:38:04;;;;;;;7.72;1.55;;;13.50;62.40;15.00;100404.00;;;;5027844;28;20220;-79
2024/04/04 00:40:36;;;;;;;4.43;1.17;;;13.50;62.50;15.00;100406.00;;;;5028191;28;20826;-79
2024/04/04 00:43:03;;;;;;;6.13;1.50;;;13.50;62.60;15.00;100400.00;;;;5028137;28;20585;-79
2024/04/04 00:45:31;;;;;;;3.17;0.68;;;13.40;62.50;15.00;100401.00;;;;5028801;28;20208;-79
2024/04/04 00:47:59;;;;;;;4.32;1.15;;;13.40;62.50;14.90;100398.00;;;;5027797;28;20192;-79
2024/04/04 00:50:27;;;;;;;4.38;0.95;;;13.40;62.60;14.90;100396.00;;;;5026866;28;20232;-79
2024/04/04 00:52:55;;;;;;;3.92;0.75;;;13.30;62.60;14.90;100398.00;;;;5028501;28;20204;-76
2024/04/04 00:55:24;;;;;;;4.38;0.70;;;13.30;62.60;14.80;100390.00;;;;5028734;28;20295;-76
2024/04/04 00:57:52;;;;;;;3.17;0.77;;;13.20;62.60;14.80;100393.00;;;;5027220;28;20224;-77
2024/04/04 01:00:23;;;;;;;2.88;0.73;;;13.20;62.60;14.80;100395.00;;;;5027935;28;20192;-76
2024/04/04 01:02:50;;;;;;;4.22;1.05;;;13.20;62.70;14.80;100388.00;;;;5032536;28;21176;-77
2024/04/04 01:05:17;;;;;;;4.00;1.08;;;13.10;62.80;14.80;100386.00;;;;5025290;28;20192;-77
2024/04/04 01:07:46;;;;;;;2.72;0.80;;;13.10;62.90;14.80;100381.00;;;;5007548;28;20208;-76
2024/04/04 01:10:13;;;;;;;2.17;0.95;;;13.10;63.00;14.80;100376.00;;;;5008533;28;20200;-77
2024/04/04 01:12:41;;;;;;;4.18;0.63;;;13.10;63.20;14.80;100385.00;;;;5008862;28;20189;-76
2024/04/04 01:15:09;;;;;;;3.47;0.93;;;13.10;63.20;14.80;100383.00;;;;5008417;28;20205;-78
2024/04/04 01:17:35;;;;;;;3.53;1.00;;;13.10;63.30;14.80;100371.00;;;;5005811;28;20226;-78
2024/04/04 01:20:03;;;;;;;3.38;1.42;;;13.20;63.50;14.80;100374.00;;;;5008846;28;20216;-78
2024/04/04 01:22:29;;;;;;;4.55;1.13;;;13.20;63.70;14.80;100378.00;;;;5012173;28;20681;-78
2024/04/04 01:24:58;;;;;;;2.97;0.63;;;13.20;63.90;14.90;100380.00;;;;5010580;28;20659;-78
2024/04/04 01:27:24;;;;;;;5.32;1.30;;;13.20;64.20;14.90;100382.00;;;;5011939;28;20210;-78
2024/04/04 01:29:50;;;;;;;4.03;1.00;;;13.20;64.40;14.90;100371.00;;;;5011983;28;20264;-78
2024/04/04 01:32:18;;;;;;;6.68;1.42;;;13.20;64.50;14.90;100367.00;;;;5012484;28;20208;-79
2024/04/04 01:34:44;;;;;;;3.15;1.17;;;13.30;64.70;14.90;100367.00;;;;5011151;28;20610;-79
2024/04/04 01:37:11;;;;;;;3.25;0.88;;;13.30;64.80;15.00;100366.00;;;;5011704;28;20197;-78
2024/04/04 01:39:38;;;;;;;3.13;1.13;;;13.30;65.00;15.00;100356.00;;;;5012231;28;20201;-78
2024/04/04 01:42:07;;;;;;;2.65;0.90;;;13.30;65.10;15.00;100353.00;;;;5011233;28;20211;-78
2024/04/04 01:44:33;;;;;;;6.35;1.17;;;13.30;65.30;15.10;100352.00;;;;5011819;28;20193;-78
2024/04/04 01:46:59;;;;;;;6.65;1.30;;;13.30;65.40;15.10;100354.00;;;;5010964;28;20216;-79
2024/04/04 01:49:25;;;;;;;4.40;1.60;;;13.40;65.50;15.10;100350.00;;;;5011480;28;20200;-78
2024/04/04 01:51:52;;;;;;;4.65;0.93;;;13.40;65.50;15.10;100347.00;;;;5012246;28;20205;-78
2024/04/04 01:54:18;;;;;;;7.40;1.50;;;13.40;65.50;15.20;100338.00;;;;5022719;28;20205;-78
2024/04/04 01:56:45;;;;;;;3.25;1.20;;;13.40;65.60;15.20;100332.00;;;;5074323;23;20223;-78
2024/04/04 01:59:13;;;;;;;5.75;1.92;;;13.40;65.60;15.20;100326.00;;;;5050684;28;20226;-78
2024/04/04 02:01:40;;;;;;;4.47;0.95;;;13.50;65.60;15.30;100326.00;;;;5051879;28;20584;-78
2024/04/04 02:04:06;;;;;;;6.78;1.10;;;13.50;65.60;15.30;100321.00;;;;5051679;28;20739;-78
2024/04/04 02:06:33;;;;;;;3.28;0.80;;;13.50;65.60;15.30;100323.00;;;;5051164;28;20223;-78
2024/04/04 02:08:59;;;;;;;2.67;0.80;;;13.60;65.80;15.30;100323.00;;;;5051210;28;20825;-78
2024/04/04 02:11:26;;;;;;;5.22;1.52;;;13.60;65.80;15.40;100318.00;;;;5063795;28;20225;-78
2024/04/04 02:13:52;;;;;;;4.72;1.15;;;13.60;65.80;15.40;100316.00;;;;5071348;28;20213;-78
2024/04/04 02:16:23;;;;;;;9.27;1.10;;;13.60;65.80;15.40;100306.00;;;;5059571;28;20286;-78
2024/04/04 02:18:49;;;;;;;3.63;1.02;;;13.60;66.50;15.40;100315.00;;;;5050615;28;20226;-78
2024/04/04 02:21:17;;;;;;;4.60;1.30;;;13.70;65.80;15.40;100304.00;;;;5050109;28;20288;-78
2024/04/04 02:23:43;;;;;;;3.33;0.80;;;13.70;65.90;15.50;100299.00;;;;5050945;28;20215;-79
2024/04/04 02:26:10;;;;;;;2.08;0.77;;;13.70;65.80;15.50;100291.00;;;;5050465;28;20242;-78
2024/04/04 02:28:36;;;;;;;3.53;1.13;;;13.70;65.70;15.50;100283.00;;;;5050471;28;20212;-78
2024/04/04 02:31:03;;;;;;;3.97;0.95;;;13.70;65.70;15.50;100280.00;;;;5050822;28;20206;-79
2024/04/04 02:33:31;;;;;;;7.97;1.25;;;13.70;65.80;15.50;100277.00;;;;5050511;28;20203;-79
2024/04/04 02:35:58;;;;;;;3.40;0.70;;;13.70;65.80;15.50;100278.00;;;;5050145;28;20210;-78
2024/04/04 02:38:26;;;;;;;4.32;0.85;;;13.80;65.90;15.50;100273.00;;;;5050631;28;20226;-79
2024/04/04 02:40:53;;;;;;;3.95;1.23;;;13.80;65.90;15.60;100260.00;;;;5049718;28;20204;-79
2024/04/04 02:43:19;;;;;;;4.35;0.88;;;13.80;65.90;15.60;100255.00;;;;5050675;28;20206;-78
2024/04/04 02:45:46;;;;;;;2.10;0.77;;;13.80;65.90;15.60;100249.00;;;;5048625;28;20207;-78
2024/04/04 02:48:12;;;;;;;6.93;1.00;;;13.80;65.90;15.60;100248.00;;;;5049255;28;20191;-79
2024/04/04 02:50:41;;;;;;;3.90;0.70;;;13.80;65.90;15.60;100239.00;;;;5049767;28;20196;-79
2024/04/04 02:53:07;;;;;;;2.97;0.85;;;13.90;65.90;15.60;100230.00;;;;5050013;28;20204;-79
2024/04/04 02:55:34;;;;;;;2.63;1.30;;;13.90;65.90;15.60;100223.00;;;;5049443;28;20192;-79
2024/04/04 02:58:00;;;;;;;4.43;1.17;;;13.90;65.90;15.70;100217.00;;;;5046266;28;20235;-79
2024/04/04 03:00:27;;;;;;;2.70;0.77;;;13.90;65.90;15.70;100213.00;;;;5049576;28;20203;-79
2024/04/04 03:02:53;;;;;;;2.90;0.90;;;13.90;65.90;15.70;100208.00;;;;5051011;28;20203;-79
2024/04/04 03:05:21;;;;;;;3.80;0.90;;;13.90;65.90;15.70;100204.00;;;;5049244;28;20195;-80
2024/04/04 03:07:50;;;;;;;3.67;0.70;;;13.90;65.90;15.70;100198.00;;;;5049033;28;20257;-79
2024/04/04 03:10:17;;;;;;;1.80;0.57;;;14.00;66.00;15.70;100205.00;;;;5049739;28;20275;-80
2024/04/04 03:12:43;;;;;;;3.83;0.88;;;13.90;66.00;15.70;100199.00;;;;5049779;28;20191;-79
2024/04/04 03:15:10;;;;;;;3.25;0.80;;;13.90;66.10;15.70;100199.00;;;;5048544;28;20674;-79
2024/04/04 03:17:36;;;;;;;2.05;0.60;;;14.00;66.10;15.70;100193.00;;;;5029531;28;20203;-79
2024/04/04 03:20:03;;;;;;;4.60;1.10;;;14.00;66.10;15.70;100186.00;;;;5047968;28;20204;-78
2024/04/04 03:22:30;;;;;;;4.07;1.25;;;14.00;66.10;15.70;100183.00;;;;5048328;28;20207;-79
2024/04/04 03:24:58;;;;;;;1.63;0.65;;;14.00;66.10;15.70;100169.00;;;;5048996;28;20211;-79
2024/04/04 03:27:25;;;;;;;2.58;1.00;;;14.00;66.10;15.70;100172.00;;;;5049252;28;20204;-79
2024/04/04 03:29:52;;;;;;;4.32;0.82;;;14.00;66.10;15.70;100167.00;;;;5049048;28;20665;-79
2024/04/04 03:32:18;;;;;;;2.95;0.70;;;14.00;66.20;15.70;100163.00;;;;5048468;28;20196;-79
2024/04/04 03:34:47;;;;;;;2.35;0.70;;;14.00;66.20;15.70;100159.00;;;;5049539;28;20310;-79
2024/04/04 03:37:14;;;;;;;1.27;0.50;;;14.00;66.20;15.80;100159.00;;;;5050046;28;20238;-79
2024/04/04 03:39:41;;;;;;;4.00;0.98;;;14.00;66.30;15.80;100157.00;;;;5045607;28;20635;-79
2024/04/04 03:42:09;;;;;;;2.10;0.70;;;14.00;66.30;15.80;100163.00;;;;5039659;28;20208;-79
2024/04/04 03:44:36;;;;;;;1.00;0.50;;;14.10;66.40;15.80;100152.00;;;;5048709;28;20192;-79
2024/04/04 03:47:03;;;;;;;3.50;1.30;;;14.10;66.40;15.80;100159.00;;;;5047829;28;20198;-78
2024/04/04 03:49:30;;;;;;;2.70;1.23;;;14.10;66.40;15.80;100147.00;;;;5046676;28;20280;-79
2024/04/04 03:51:56;;;;;;;3.60;0.90;;;14.10;66.40;15.80;100144.00;;;;5048618;28;20582;-79
2024/04/04 03:54:22;;;;;;;1.67;0.47;;;14.00;66.40;15.80;100141.00;;;;5049020;28;20215;-79
2024/04/04 03:56:48;;;;;;;3.60;0.85;;;14.10;66.50;15.80;100141.00;;;;5047175;28;20200;-79
2024/04/04 03:59:17;;;;;;;2.00;0.85;;;14.00;66.40;15.80;100129.00;;;;5049125;28;20715;-79
2024/04/04 04:01:43;;;;;;;3.47;0.77;;;14.10;66.60;15.80;100119.00;;;;5047905;28;20204;-79
2024/04/04 04:04:09;;;;;;;2.90;0.88;;;14.10;66.60;15.80;100121.00;;;;5048859;28;20215;-79
2024/04/04 04:06:36;;;;;;;1.63;0.68;;;14.10;66.60;15.80;100122.00;;;;5038046;28;20243;-79
2024/04/04 04:09:03;;;;;;;2.08;0.85;;;14.10;66.70;15.80;100114.00;;;;5031166;28;20200;-79
2024/04/04 04:11:29;;;;;;;2.95;0.90;;;14.10;67.40;15.90;100112.00;;;;5049456;28;20206;-79
2024/04/04 04:13:56;;;;;;;1.40;0.88;;;14.10;66.80;15.90;100104.00;;;;5048004;28;20208;-78
2024/04/04 04:16:24;;;;;;;2.45;0.98;;;14.10;66.80;15.90;100106.00;;;;5047923;28;20594;-79
2024/04/04 04:18:51;;;;;;;1.33;0.63;;;14.20;67.00;15.90;100104.00;;;;5047806;28;20227;-79
2024/04/04 04:21:20;;;;;;;7.05;0.90;;;14.20;67.10;15.90;100107.00;;;;5048396;28;20204;-79
2024/04/04 04:23:47;;;;;;;2.95;0.95;;;14.20;67.10;15.90;100104.00;;;;5047825;28;20203;-79
2024/04/04 04:26:14;;;;;;;2.08;0.88;;;14.20;67.20;15.90;100103.00;;;;5046109;28;20792;-79
2024/04/04 04:28:41;;;;;;;2.55;1.20;;;14.20;67.20;16.00;100100.00;;;;5046663;28;20211;-79
2024/04/04 04:31:26;;;;;;;1.67;0.80;;;14.20;67.20;15.80;100097.00;;;;5049128;28;20295;-79
2024/04/04 04:33:53;;;;;;;3.47;1.15;;;14.20;67.50;16.00;100093.00;;;;5044562;28;20192;-79
2024/04/04 04:36:20;;;;;;;2.15;1.20;;;14.20;67.30;16.00;100093.00;;;;5037121;28;20195;-79
2024/04/04 04:38:46;;;;;;;1.95;1.08;;;14.20;67.30;16.00;100089.00;;;;5046818;28;20238;-78
2024/04/04 04:41:13;;;;;;;1.80;0.90;;;14.30;67.40;16.00;100089.00;;;;5045937;28;20200;-79
2024/04/04 04:43:42;;;;;;;3.28;0.85;;;14.30;67.50;16.00;100075.00;;;;5044628;28;20760;-79
2024/04/04 04:46:10;;;;;;;1.33;1.10;;;14.30;67.60;16.00;100078.00;;;;5045531;28;20550;-79
2024/04/04 04:48:37;;;;;;;1.60;0.90;;;14.30;67.70;16.00;100058.00;;;;5046970;28;20238;-79
2024/04/04 04:51:05;;;;;;;2.13;0.85;;;14.30;67.70;16.00;100053.00;;;;5047568;28;20716;-79
2024/04/04 04:53:31;;;;;;;1.55;0.90;;;14.30;67.70;16.00;100057.00;;;;5047665;28;20199;-78
2024/04/04 04:55:57;;;;;;;1.75;1.05;;;14.30;67.70;16.00;100046.00;;;;5046257;28;20207;-78
2024/04/04 04:58:23;;;;;;;2.95;1.52;;;14.40;67.80;16.00;100051.00;;;;5043742;28;20238;-79
2024/04/04 05:00:52;;;;;;;4.68;1.48;;;14.40;67.80;16.00;100036.00;;;;5049615;28;20459;-79
2024/04/04 05:03:19;;;;;;;1.10;0.90;;;14.40;67.80;16.00;100034.00;;;;5048367;28;20579;-79
2024/04/04 05:05:47;;;;;;;2.10;1.08;;;14.30;67.80;16.00;100023.00;;;;5047676;28;20771;-79
2024/04/04 05:08:13;;;;;;;2.22;1.00;;;14.30;67.90;16.00;100024.00;;;;5044599;28;20188;-79
2024/04/04 05:10:40;;;;;;;2.70;1.35;;;14.40;68.00;16.00;100024.00;;;;5046480;28;20211;-78
2024/04/04 05:13:06;;;;;;;4.13;1.23;;;14.40;68.10;16.10;100024.00;;;;5046548;28;20202;-79
2024/04/04 05:15:44;;;;;;;2.63;1.25;;;14.40;68.10;16.00;100011.00;;;;5045529;28;20196;-79
2024/04/04 05:18:11;;;;;;;1.73;1.20;;;14.40;68.30;16.10;100014.00;;;;5043472;28;20219;-78
2024/04/04 05:20:37;;;;;;;1.98;1.48;;;14.40;68.10;16.10;100011.00;;;;5050294;28;20199;-78
2024/04/04 05:23:05;;;;;;;2.13;1.30;;;14.40;68.10;16.10;100002.00;;;;5047097;28;20191;-78
2024/04/04 05:25:32;;;;;;;1.83;1.30;;;14.40;68.10;16.20;100004.00;;;;5048299;28;20735;-78
2024/04/04 05:27:58;;;;;;;2.30;1.45;;;14.50;68.20;16.20;100002.00;;;;5043861;28;20210;-78
2024/04/04 05:30:26;;;;;;;2.08;1.40;;;14.50;68.20;16.20;100002.00;;;;5044815;28;20199;-78
2024/04/04 05:32:53;;;;;;;3.15;1.60;;;14.50;68.20;16.20;99997.00;;;;5047036;28;20578;-78
2024/04/04 05:35:20;;;;;;;1.83;1.52;;;14.50;68.20;16.20;99997.00;;;;5046424;28;20208;-79
2024/04/04 05:37:46;;;;;;;2.17;1.73;;;14.50;68.20;16.20;99998.00;;;;5045188;28;20200;-80
2024/04/04 05:40:14;;;;;;;2.70;1.92;;;14.50;68.30;16.20;99996.00;;;;5046675;28;20227;-79
2024/04/04 05:42:40;;;;;;;2.72;1.70;;;14.50;69.00;16.30;99992.00;;;;5047702;28;20198;-79
2024/04/04 05:45:08;;;;;;;1.95;1.75;;;14.50;68.40;16.30;99986.00;;;;5046693;28;20209;-79
2024/04/04 05:47:34;;;;;;;3.85;1.77;;;14.60;68.50;16.30;99991.00;;;;5038534;28;20199;-79
2024/04/04 05:50:01;;;;;;;2.58;1.58;;;14.60;68.50;16.30;99987.00;;;;5045172;28;20196;-80
2024/04/04 05:52:27;;;;;;;2.30;1.63;;;14.60;68.60;16.40;99986.00;;;;5045935;28;20204;-80
2024/04/04 05:54:54;;;;;;;1.95;1.60;;;14.60;68.60;16.40;99992.00;;;;5047131;28;20199;-79
2024/04/04 05:57:22;;;;;;;2.15;1.73;;;14.60;68.60;16.40;99997.00;;;;5028036;28;20228;-79
2024/04/04 05:59:49;;;;;;;2.55;1.80;;;14.70;68.70;16.50;99986.00;;;;5044798;28;20705;-79
2024/04/04 06:02:15;;;;;;;2.95;1.10;;;14.70;68.70;16.50;99980.00;;;;5048650;28;20470;-79
2024/04/04 06:04:43;;;;;;;2.92;1.10;;;14.70;68.80;16.50;99984.00;;;;5051160;28;20197;-78
2024/04/04 06:07:09;;;;;;;1.58;1.10;;;14.80;68.90;16.50;99973.00;;;;5062323;28;20215;-79
2024/04/04 06:09:36;;;;;;;2.03;1.30;;;14.80;69.00;16.50;99976.00;;;;5051908;28;20200;-79
2024/04/04 06:12:02;;;;;;;2.00;1.23;;;14.80;69.10;16.50;99979.00;;;;5057868;28;20253;-78
2024/04/04 06:14:32;;;;;;;2.45;1.60;;;14.80;69.20;16.50;99963.00;;;;5051185;28;20196;-79
2024/04/04 06:16:58;;;;;;;2.35;1.40;;;14.80;69.30;16.60;99980.00;;;;5106749;22;20705;-79
2024/04/04 06:19:25;;;;;;;1.58;0.90;;;14.90;69.30;16.60;99978.00;;;;5030763;28;20254;-79
2024/04/04 06:21:51;;;;;;;1.60;0.88;;;14.90;69.30;16.70;99977.00;;;;5030190;28;20200;-79
2024/04/04 06:24:18;;;;;;;1.10;0.88;;;14.90;69.30;16.70;99968.00;;;;5030191;28;20197;-79
2024/04/04 06:26:44;;;;;;;1.90;0.88;;;15.00;69.50;16.70;99976.00;;;;5031661;28;20200;-79
2024/04/04 06:29:11;;;;;;;3.45;1.00;;;15.00;69.50;16.70;99963.00;;;;5031711;28;20250;-79
2024/04/04 06:31:39;;;;;;;1.55;0.77;;;15.10;69.60;16.70;99967.00;;;;5030658;28;20207;-79
2024/04/04 06:34:06;;;;;;;0.73;0.63;;;15.10;69.70;16.70;99970.00;;;;5030616;28;20211;-79
2024/04/04 06:36:32;;;;;;;1.08;0.80;;;15.10;69.70;16.80;99968.00;;;;5030738;28;20203;-79
2024/04/04 06:39:03;;;;;;;1.50;0.80;;;15.10;69.70;16.80;99968.00;;;;5029474;28;20231;-79
2024/04/04 06:41:29;;;;;;;2.63;0.90;;;15.20;69.80;16.80;99965.00;;;;5030895;28;20287;-79
2024/04/04 06:43:56;;;;;;;1.90;1.08;;;15.20;69.80;16.90;99968.00;;;;5031529;28;20287;-79
2024/04/04 06:46:22;;;;;;;0.95;0.80;;;15.20;69.80;16.90;99970.00;;;;5030134;28;20196;-79
2024/04/04 06:48:50;;;;;;;2.55;0.80;;;15.20;69.80;16.90;99968.00;;;;5029180;28;20196;-79
2024/04/04 06:51:16;;;;;;;2.15;1.00;;;15.30;70.00;16.90;99969.00;;;;5029647;28;20202;-80
2024/04/04 06:53:43;;;;;;;3.28;1.30;;;15.30;69.90;16.90;99964.00;;;;5030583;28;20647;-81
2024/04/04 06:56:10;;;;;;;3.72;0.90;;;15.30;69.90;16.90;99969.00;;;;5029895;28;20200;-79
2024/04/04 06:58:37;;;;;;;1.67;1.10;;;15.30;70.00;17.00;99976.00;;;;5030436;28;20224;-79
2024/04/04 07:01:03;;;;;;;2.03;1.17;;;15.40;70.10;17.00;99977.00;;;;5030439;28;20214;-79
2024/04/04 07:03:30;;;;;;;5.22;1.67;;;15.40;70.30;17.00;99982.00;;;;5029753;28;20295;-79
2024/04/04 07:05:57;;;;;;;2.65;1.30;;;15.50;70.30;17.00;99987.00;;;;5025147;28;20232;-80
2024/04/04 07:08:25;;;;;;;2.47;1.25;;;15.50;70.40;17.10;99980.00;;;;5030822;28;20290;-80
2024/04/04 07:10:59;;;;;;;2.53;1.05;;;15.50;70.40;17.00;99982.00;;;;5030413;28;20200;-80
2024/04/04 07:13:26;;;;;;;3.53;1.52;;;15.50;70.60;17.10;99988.00;;;;5029511;28;20200;-79
2024/04/04 07:16:01;;;;;;;2.40;1.30;;;15.60;70.50;17.10;99987.00;;;;5029067;28;20204;-80
2024/04/04 07:18:28;;;;;;;3.67;1.50;;;15.60;70.70;17.20;99977.00;;;;5021230;28;20350;-80
2024/04/04 07:20:54;;;;;;;3.33;1.38;;;15.70;70.50;17.30;99982.00;;;;5030394;28;20208;-81
2024/04/04 07:23:22;;;;;;;2.78;1.45;;;15.70;70.70;17.30;99991.00;;;;5029626;28;20208;-80
2024/04/04 07:25:51;;;;;;;2.45;1.17;;;15.70;70.70;17.30;99995.00;;;;5029494;28;20192;-81
2024/04/04 07:28:18;;;;;;;2.88;1.30;;;15.80;70.80;17.40;99986.00;;;;5029241;28;20678;-81
2024/04/04 07:30:44;;;;;;;1.23;1.00;;;15.80;70.60;17.40;99991.00;;;;5029574;28;20212;-80
2024/04/04 07:33:12;;;;;;;3.97;1.50;;;15.90;70.60;17.50;99969.00;;;;5031784;28;20698;-83
2024/04/04 07:35:38;;;;;;;2.90;1.25;;;15.90;70.60;17.50;99970.00;;;;5028937;28;20302;-80
2024/04/04 07:38:05;;;;;;;2.28;1.25;;;15.90;70.50;17.50;99975.00;;;;5022243;28;20263;-81
2024/04/04 07:40:34;;;;;;;3.45;1.17;;;15.90;70.50;17.50;99974.00;;;;5022703;28;20228;-82
2024/04/04 07:43:01;;;;;;;2.63;1.10;;;16.00;70.50;17.60;99970.00;;;;5020581;28;20215;-81
2024/04/04 07:45:27;;;;;;;4.25;1.27;;;16.00;70.50;17.60;99983.00;;;;5027010;28;20533;-81
2024/04/04 07:47:55;;;;;;;2.67;1.25;;;16.00;70.50;17.60;99978.00;;;;5029631;28;20236;-82
2024/04/04 07:50:23;;;;;;;1.83;1.08;;;16.10;70.50;17.70;99978.00;;;;5020973;28;20229;-80
2024/04/04 07:52:51;;;;;;;4.10;0.95;;;16.10;70.50;17.70;99965.00;;;;5028160;28;20280;-79
2024/04/04 07:55:17;;;;;;;2.97;1.55;;;16.10;70.40;17.70;99975.00;;;;5023864;28;20208;-79
2024/04/04 07:57:45;;;;;;;3.10;0.95;;;16.10;70.40;17.70;99969.00;;;;5027112;28;20203;-78
2024/04/04 08:00:13;;;;;;;1.75;0.85;;;16.20;70.50;17.70;99968.00;;;;5020491;28;20315;-79
2024/04/04 08:02:40;;;;;;;3.78;1.00;;;16.20;70.50;17.80;99983.00;;;;5028081;28;20273;-79
2024/04/04 08:05:08;;;;;;;1.50;0.90;;;16.20;70.50;17.80;99970.00;;;;5028211;28;20247;-78
2024/04/04 08:07:36;;;;;;;2.35;0.95;;;16.20;70.30;17.80;99972.00;;;;5018066;28;20221;-79
2024/04/04 08:10:05;;;;;;;1.88;1.00;;;16.20;70.30;17.80;99986.00;;;;5022268;28;20578;-78
2024/04/04 08:12:33;;;;;;;2.17;1.15;;;16.20;70.40;17.90;99984.00;;;;5028616;28;20235;-79
2024/04/04 08:15:03;;;;;;;2.83;1.30;;;16.30;70.30;17.90;99979.00;;;;5028739;28;20200;-78
2024/04/04 08:17:31;;;;;;;3.80;1.20;;;16.30;70.40;17.90;99994.00;;;;5025049;28;20228;-79
2024/04/04 08:19:57;;;;;;;1.45;0.90;;;16.30;70.30;17.90;99984.00;;;;5027754;28;20228;-79
2024/04/04 08:22:24;;;;;;;2.80;1.17;;;16.30;70.40;18.00;99992.00;;;;5026327;28;20204;-79
2024/04/04 08:24:50;;;;;;;4.65;1.10;;;16.40;70.30;18.00;99993.00;;;;5015641;28;20212;-78
2024/04/04 08:27:20;;;;;;;2.28;0.90;;;16.40;70.30;18.00;99996.00;;;;5008002;28;20224;-79
2024/04/04 08:29:47;;;;;;;2.15;0.93;;;16.40;70.20;18.00;99993.00;;;;5015743;28;20200;-79
2024/04/04 08:32:16;;;;;;;3.10;0.88;;;16.50;70.30;18.00;100006.00;;;;5008381;28;20287;-78
2024/04/04 08:34:43;;;;;;;1.95;0.60;;;16.50;70.30;18.10;100000.00;;;;5022479;28;20581;-79
2024/04/04 08:37:10;;;;;;;4.47;1.05;;;16.50;70.20;18.10;100005.00;;;;5022852;28;20192;-79
2024/04/04 08:39:36;;;;;;;2.45;0.80;;;16.50;70.20;18.10;100003.00;;;;5019549;28;20227;-79
2024/04/04 08:42:05;;;;;;;3.28;0.93;;;16.60;70.20;18.10;100012.00;;;;5018160;28;20236;-78
2024/04/04 08:44:32;;;;;;;1.52;1.05;;;16.60;70.10;18.10;100006.00;;;;5024849;28;20242;-78
2024/04/04 08:47:00;;;;;;;3.05;0.75;;;16.60;70.80;18.10;100020.00;;;;5022773;28;20200;-79
2024/04/04 08:49:29;;;;;;;2.83;1.08;;;16.60;69.90;18.10;100010.00;;;;5026992;28;20211;-78
2024/04/04 08:51:57;;;;;;;2.47;0.73;;;16.60;69.90;18.10;100001.00;;;;5026926;28;20294;-78
2024/04/04 08:54:23;;;;;;;5.18;1.00;;;16.60;69.70;18.10;100003.00;;;;5027751;28;20207;-80
2024/04/04 08:56:51;;;;;;;2.67;0.90;;;16.60;69.70;18.10;100015.00;;;;5027858;28;20200;-80
2024/04/04 08:59:18;;;;;;;2.30;0.80;;;16.60;69.70;18.10;100018.00;;;;5024871;28;20285;-80
2024/04/04 09:01:45;;;;;;;1.73;0.77;;;16.60;69.70;18.20;100031.00;;;;5027030;28;20617;-80
2024/04/04 09:04:22;;;;;;;2.58;0.70;;;16.60;69.90;18.10;100037.00;;;;5018286;28;20195;-79
2024/04/04 09:06:50;;;;;;;2.72;1.05;;;16.60;69.90;18.20;100033.00;;;;5026317;28;20226;-80
2024/04/04 09:09:16;;;;;;;2.33;0.93;;;16.60;69.80;18.20;100043.00;;;;5027130;28;20200;-80
2024/04/04 09:11:43;;;;;;;2.50;0.68;;;16.70;69.80;18.20;100029.00;;;;5024804;28;20258;-79
2024/04/04 09:14:09;;;;;;;1.23;0.50;;;16.60;69.70;18.20;100038.00;;;;5023728;28;20196;-80
2024/04/04 09:16:37;;;;;;;1.85;0.63;;;16.70;69.60;18.20;100041.00;;;;5022914;28;20282;-79
2024/04/04 09:19:13;;;;;;;1.02;0.55;;;16.70;69.50;18.10;100056.00;;;;5018284;28;20236;-80
2024/04/04 09:21:43;;;;;;;2.63;0.80;;;16.60;69.30;18.20;100056.00;;;;5027902;28;20206;-80
2024/04/04 09:24:13;;;;;;;1.10;0.47;;;16.70;69.20;18.10;100054.00;;;;5027723;28;20270;-80
2024/04/04 09:26:40;;;;;;;1.45;0.50;;;16.60;69.10;18.10;100062.00;;;;5014400;28;20590;-81
2024/04/04 09:29:08;;;;;;;1.55;0.60;;;16.60;68.90;18.10;100076.00;;;;5027409;28;20199;-80
2024/04/04 09:31:37;;;;;;;2.05;0.60;;;16.60;68.80;18.00;100091.00;;;;5010720;28;20209;-81
2024/04/04 09:34:04;;;;;;;1.10;0.70;;;16.50;68.70;18.00;100102.00;;;;5012182;28;20205;-80
2024/04/04 09:36:33;;;;;;;2.42;0.60;;;16.50;68.70;17.90;100108.00;;;;5022930;28;20207;-80
2024/04/04 09:39:02;;;;;;;0.80;0.60;;;16.50;68.90;17.90;100106.00;;;;5028499;28;20612;-80
2024/04/04 09:41:31;;;;;;;0.90;0.60;;;16.40;68.80;17.80;100088.00;;;;5031546;28;20196;-82
2024/04/04 09:43:58;;;;;;;1.48;0.20;;;16.40;68.70;17.80;100082.00;;;;5029710;28;20200;-80
2024/04/04 09:46:28;;;;;;;0.68;0.35;;;16.30;68.40;17.70;100085.00;;;;5029629;28;20236;-79
2024/04/04 09:48:55;;;;;;;0.98;0.30;;;16.30;68.20;17.70;100089.00;;;;5025044;28;20646;-79
2024/04/04 09:51:24;;;;;;;0.80;0.50;;;16.20;68.20;17.70;100092.00;;;;5029594;28;20287;-79
2024/04/04 09:53:52;;;;;;;1.15;0.43;;;16.20;68.40;17.70;100088.00;;;;5026201;28;20193;-78
2024/04/04 09:56:22;;;;;;;1.25;0.63;;;16.20;68.90;17.80;100088.00;;;;5019896;28;20196;-79
2024/04/04 09:58:50;;;;;;;1.30;0.40;;;16.20;69.40;17.90;100084.00;;;;5029874;28;20204;-79
2024/04/04 10:01:23;;;;;;;3.28;0.70;;;16.30;70.00;18.10;100085.00;;;;5031086;28;20204;-79
2024/04/04 10:03:57;;;;;;;2.45;0.70;;;16.40;70.60;18.10;100091.00;;;;5026044;28;20563;-79
2024/04/04 10:06:30;;;;;;;1.90;0.60;;;16.50;70.50;18.30;100080.00;;;;5015566;28;20220;-79
2024/04/04 10:08:59;;;;;;;1.73;0.68;;;16.60;70.40;18.40;100089.00;;;;5011648;28;20216;-78
2024/04/04 10:11:33;;;;;;;1.63;0.60;;;16.70;70.30;18.40;100089.00;;;;5011379;28;20232;-79
2024/04/04 10:14:03;;;;;;;1.92;0.75;;;16.70;69.90;18.40;100097.00;;;;5022530;28;20241;-80
2024/04/04 10:16:35;;;;;;;4.50;0.82;;;16.80;69.60;18.50;100108.00;;;;5020690;28;20204;-81
2024/04/04 10:19:12;;;;;;;3.45;0.90;;;16.90;69.40;18.50;100111.00;;;;5028608;28;20310;-79
2024/04/04 10:21:39;;;;;;;2.35;0.88;;;17.00;69.10;18.60;100107.00;;;;5021057;28;20218;-80
2024/04/04 10:24:06;;;;;;;1.95;0.70;;;17.00;69.00;18.60;100105.00;;;;5021823;28;20219;-81
2024/04/04 10:26:33;;;;;;;1.00;0.50;;;17.10;68.90;18.60;100112.00;;;;5012779;28;20200;-81
2024/04/04 10:29:00;;;;;;;2.83;0.80;;;17.20;68.50;18.70;100108.00;;;;5029563;28;20520;-79
2024/04/04 10:31:28;;;;;;;1.52;0.73;;;17.20;68.10;18.70;100115.00;;;;5021794;28;20336;-80
2024/04/04 10:34:05;;;;;;;2.28;0.60;;;17.30;68.10;18.70;100119.00;;;;5011092;28;20197;-80
2024/04/04 10:36:43;;;;;;;0.90;0.40;;;17.30;68.10;18.80;100116.00;;;;5012666;28;20256;-80
2024/04/04 10:39:12;;;;;;;1.00;0.50;;;17.40;68.00;19.00;100110.00;;;;5029304;28;20219;-81
2024/04/04 10:41:44;;;;;;;1.45;0.40;;;17.50;67.80;19.00;100118.00;;;;5027292;28;20745;-81
2024/04/04 10:44:13;;;;;;;2.35;0.50;;;17.60;67.60;19.10;100117.00;;;;5030100;28;20645;-80
2024/04/04 10:46:44;;;;;;;2.80;0.55;;;17.70;67.50;19.20;100116.00;;;;5018244;28;20205;-81
2024/04/04 10:49:11;;;;;;;1.95;0.30;;;17.80;67.30;19.40;100116.00;;;;5009676;28;20628;-80
2024/04/04 10:51:40;;;;;;;2.60;0.40;;;17.90;67.40;19.50;100117.00;;;;5009493;28;20251;-81